Hauptseite
METAR-TAF:

METAR-TAF

Flughäfen :

Flughafen Seychellen

Victoria, Mahé, Seychellen

Breite: 04-40S, Länge: 055-31E, Höhe: 3 m

Beobachtung

Neuester Wetterbericht von vor 35 Minuten, um 12:00 UTC
Wind 12 kt aus Ost/Südost
Temperatur 26°C
Luftfeuchtigkeit 79%
Luftdruck 1013 hPa
Sichtweite 10 km oder mehr
Leicht bewölkt in der Höhe von 1800 ft

METAR: FSIA 161200Z 12012KT 9999 R13///// FEW018 26/22 Q1013 NOSIG

Zeit: 16:35 (12:35 UTC)

Prognose

Neuester Wetterbericht von vor 1 Stunde und 34 Minuten, um 11:01 UTC
Gültige Prognose vom 16 um 12 UTC bis 17 um 12 UTC
Wind 15 kt aus Südost, Böen bis zu 20 kt
Sichtweite 10 km oder mehr
Aufgelockert bewölkt in der Höhe von 2000 ft
Wahrscheinlichkeit 40% :
Zeitweise
vom 16 um 16 UTC bis 16 um 23 UTC
Durchbrochene Bewölkung in der Höhe von 1700 ft
Regenschauer

TAF: FSIA 161101Z 1612/1712 14015G20KT 9999 SCT020 PROB40 TEMPO 1616/1623 -SHRA BKN017

Wetterbeobachtungen und Prognosen von mehr als 4000 Flughäfen (METAR und TAF Bericht).

Die verfügbaren Stationen werden durch gelbe und rote Markierungen auf der Karte dargestellt.

Führen Sie die Maus auf sie, um den Namen der Station zu sehen.

Darauf klicken, um die Beobachtung von Wetterbeobachtungen und Prognosen zu sehen.

Um die Karte zu ändern : klicken Sie auf den grünen Tasten mit einem schwarzen Kreuz Zum Vergrößern, auf den grünen Button mit einem Gedankenstrich zu verkleinern, oder auf die grünen Pfeile für benachbarte Karten.


METAR-TAF: